createdAt,value
2022-10-02T00:06:01.884Z,998.50
2022-10-02T00:16:08.043Z,998.63
2022-10-02T00:26:15.850Z,998.64
2022-10-02T00:36:22.099Z,998.69
2022-10-02T00:46:28.528Z,998.71
2022-10-02T00:56:35.470Z,998.80
2022-10-02T01:06:41.786Z,998.94
2022-10-02T01:16:48.002Z,999.00
2022-10-02T01:26:55.589Z,999.02
2022-10-02T01:37:01.889Z,999.09
2022-10-02T01:47:07.934Z,999.09
2022-10-02T01:57:14.572Z,999.10
2022-10-02T02:07:22.489Z,999.16
2022-10-02T02:17:28.868Z,999.11
2022-10-02T02:27:36.752Z,999.17
2022-10-02T02:37:42.909Z,999.20
2022-10-02T02:47:50.979Z,999.37
2022-10-02T02:57:56.817Z,999.56
2022-10-02T03:08:04.783Z,999.38
2022-10-02T03:18:11.229Z,999.52
2022-10-02T03:28:37.352Z,999.50
2022-10-02T03:38:30.716Z,999.42
2022-10-02T03:48:37.127Z,999.45
2022-10-02T03:58:42.952Z,999.37
2022-10-02T04:08:48.913Z,999.28
2022-10-02T04:18:55.087Z,999.26
2022-10-02T04:29:03.228Z,999.28
2022-10-02T04:39:09.240Z,999.23
2022-10-02T04:49:15.890Z,999.26
2022-10-02T04:59:22.251Z,999.26
2022-10-02T05:09:28.685Z,999.27
2022-10-02T05:19:34.748Z,999.30
2022-10-02T05:29:42.490Z,999.29
2022-10-02T05:39:48.740Z,999.38
2022-10-02T05:49:56.499Z,999.39
2022-10-02T06:00:02.602Z,999.40
2022-10-02T06:10:10.673Z,999.37
2022-10-02T06:20:16.775Z,999.39
2022-10-02T06:30:22.656Z,999.49
2022-10-02T06:40:29.159Z,999.44
2022-10-02T06:50:35.549Z,999.47
2022-10-02T07:00:43.471Z,999.41
2022-10-02T07:10:49.814Z,999.31
2022-10-02T07:20:56.088Z,999.25
2022-10-02T07:31:02.710Z,999.26
2022-10-02T07:41:08.989Z,999.32
2022-10-02T07:51:20.374Z,999.46
2022-10-02T08:01:26.720Z,999.48
2022-10-02T08:11:32.910Z,999.55
2022-10-02T08:21:39.573Z,999.48
2022-10-02T08:31:45.899Z,999.50
2022-10-02T08:41:51.925Z,999.36
2022-10-02T08:51:58.048Z,999.39
2022-10-02T09:02:04.241Z,999.33
2022-10-02T09:12:10.693Z,999.23
2022-10-02T09:22:17.041Z,999.16
2022-10-02T09:32:23.213Z,999.11
2022-10-02T09:42:28.877Z,999.22
2022-10-02T09:52:39.203Z,999.20
2022-10-02T10:02:46.885Z,999.15
2022-10-02T10:12:53.327Z,999.12
2022-10-02T10:22:59.334Z,999.12
2022-10-02T10:33:05.942Z,999.14
2022-10-02T10:43:15.879Z,999.14
2022-10-02T10:53:23.121Z,999.18
2022-10-02T11:03:28.882Z,999.06
2022-10-02T11:13:35.307Z,999.12
2022-10-02T11:23:41.235Z,999.08
2022-10-02T11:33:47.652Z,999.15
2022-10-02T11:43:53.987Z,999.13
2022-10-02T11:53:59.829Z,999.05
2022-10-02T12:04:07.187Z,999.15
2022-10-02T12:14:14.235Z,999.11
2022-10-02T12:24:20.496Z,999.14
2022-10-02T12:34:26.277Z,999.15
2022-10-02T12:44:32.772Z,999.15
2022-10-02T12:54:39.777Z,999.22
2022-10-02T13:04:45.877Z,999.00
2022-10-02T13:14:52.667Z,999.10
2022-10-02T13:24:59.803Z,999.09
2022-10-02T13:35:06.408Z,999.21
2022-10-02T13:45:12.645Z,999.20
2022-10-02T13:55:19.078Z,999.09
2022-10-02T14:05:25.321Z,999.07
2022-10-02T14:15:31.924Z,999.19
2022-10-02T14:25:38.369Z,999.24
2022-10-02T14:35:44.816Z,999.23
2022-10-02T14:45:51.851Z,999.23
2022-10-02T14:55:58.429Z,999.28
2022-10-02T15:06:04.997Z,999.27
2022-10-02T15:16:11.747Z,999.24
2022-10-02T15:26:17.777Z,999.26
2022-10-02T15:36:24.188Z,999.24
2022-10-02T15:46:30.935Z,999.32
2022-10-02T15:56:37.438Z,999.61
2022-10-02T16:06:44.152Z,999.79
2022-10-02T16:16:50.701Z,999.93
2022-10-02T16:26:57.020Z,1000.02
2022-10-02T16:37:03.616Z,1000.20
2022-10-02T16:47:10.087Z,1000.37
2022-10-02T16:57:17.782Z,1000.50
2022-10-02T17:07:23.875Z,1000.82
2022-10-02T17:17:31.801Z,1000.90
2022-10-02T17:27:37.864Z,1000.86
2022-10-02T17:37:44.865Z,1000.98
2022-10-02T17:47:50.717Z,1001.09
2022-10-02T17:57:59.045Z,1001.26
2022-10-02T18:08:05.122Z,1001.53
2022-10-02T18:18:11.497Z,1001.72
2022-10-02T18:28:17.819Z,1001.84
2022-10-02T18:38:25.875Z,1001.95
2022-10-02T18:48:32.386Z,1002.15
2022-10-02T18:58:40.110Z,1002.10
2022-10-02T19:08:46.562Z,1002.23
2022-10-02T19:18:52.867Z,1002.45
2022-10-02T19:28:59.044Z,1002.59
2022-10-02T19:39:07.249Z,1002.64
2022-10-02T19:49:13.561Z,1002.78
2022-10-02T19:59:21.285Z,1002.88
2022-10-02T20:09:27.545Z,1003.03
2022-10-02T20:19:33.988Z,1003.13
2022-10-02T20:29:44.584Z,1003.27
2022-10-02T20:39:51.351Z,1003.38
2022-10-02T20:49:57.535Z,1003.57
2022-10-02T21:00:04.161Z,1003.72
2022-10-02T21:10:10.352Z,1003.84
2022-10-02T21:20:27.514Z,1003.93
2022-10-02T21:30:28.183Z,1004.03
2022-10-02T21:40:34.174Z,1004.17
2022-10-02T21:50:40.360Z,1004.27
2022-10-02T22:00:47.069Z,1004.32
2022-10-02T22:10:53.084Z,1004.34
2022-10-02T22:21:00.845Z,1004.35
2022-10-02T22:31:06.357Z,1004.34
2022-10-02T22:41:12.502Z,1004.37
2022-10-02T22:51:18.619Z,1004.43
2022-10-02T23:01:26.575Z,1004.50
2022-10-02T23:11:32.994Z,1004.52
2022-10-02T23:21:45.231Z,1004.56
2022-10-02T23:31:51.838Z,1004.69
2022-10-02T23:41:58.084Z,1004.84
2022-10-02T23:52:04.185Z,1004.93
